Time;durP1;ratioP1;P1;durP2;ratioP2;P2;SDS_P1;SDS_P2;PMS_P1;PMS_P2;Temp;Humidity;BMP_temperature;BMP_pressure;BME280_temperature;BME280_humidity;BME280_pressure;Samples;Min_cycle;Max_cycle;Signal;HPM_P1;HPM_P2
2021/03/06 00:00:50;;;;;;;7.70;6.87;;;-0.10;82.90;;;;;;5008299;28;20223;-88
2021/03/06 00:03:17;;;;;;;9.87;7.17;;;-0.10;83.30;;;;;;5005626;28;20202;-87
2021/03/06 00:05:43;;;;;;;8.33;6.50;;;-0.10;83.30;;;;;;5011587;28;20225;-87
2021/03/06 00:08:10;;;;;;;9.97;6.60;;;-0.10;82.80;;;;;;5019393;28;20201;-88
2021/03/06 00:10:36;;;;;;;7.87;6.80;;;0.00;82.80;;;;;;5026503;28;20504;-88
2021/03/06 00:13:02;;;;;;;7.90;6.73;;;0.00;83.10;;;;;;5008795;28;20207;-89
2021/03/06 00:15:29;;;;;;;8.43;7.27;;;0.00;82.70;;;;;;5004254;28;20871;-87
2021/03/06 00:17:56;;;;;;;8.00;6.20;;;0.10;82.50;;;;;;5000482;28;20202;-88
2021/03/06 00:20:22;;;;;;;8.77;6.80;;;0.20;81.70;;;;;;5000826;28;20710;-88
2021/03/06 00:22:50;;;;;;;7.77;6.70;;;0.20;81.90;;;;;;5008415;28;20273;-88
2021/03/06 00:25:19;;;;;;;8.27;6.73;;;0.30;80.90;;;;;;5004775;28;20226;-87
2021/03/06 00:27:46;;;;;;;8.33;6.77;;;0.30;81.10;;;;;;5003179;28;20203;-87
2021/03/06 00:30:15;;;;;;;9.03;6.73;;;0.20;81.20;;;;;;5008282;28;20223;-87
2021/03/06 00:32:41;;;;;;;7.37;6.60;;;0.30;80.60;;;;;;5005869;28;20206;-87
2021/03/06 00:35:11;;;;;;;9.90;7.47;;;0.30;80.80;;;;;;5006971;28;20218;-88
2021/03/06 00:37:38;;;;;;;8.63;7.27;;;0.30;80.90;;;;;;5002051;28;20210;-89
2021/03/06 00:40:06;;;;;;;7.30;6.37;;;0.30;80.80;;;;;;5002023;28;20235;-88
2021/03/06 00:42:33;;;;;;;7.90;6.63;;;0.40;80.20;;;;;;4999273;28;20209;-87
2021/03/06 00:44:59;;;;;;;8.10;6.90;;;0.30;80.30;;;;;;5001713;28;20230;-87
2021/03/06 00:47:26;;;;;;;7.63;6.83;;;0.40;80.20;;;;;;5000739;28;20401;-87
2021/03/06 00:49:53;;;;;;;7.60;6.67;;;0.40;79.80;;;;;;5004784;28;20662;-87
2021/03/06 00:52:20;;;;;;;9.30;6.90;;;0.40;80.00;;;;;;4999945;28;20563;-87
2021/03/06 00:54:46;;;;;;;9.10;7.03;;;0.40;79.80;;;;;;5000566;28;20216;-89
2021/03/06 00:57:13;;;;;;;8.30;7.00;;;0.30;80.40;;;;;;5004784;28;20199;-87
2021/03/06 00:59:39;;;;;;;9.43;7.00;;;0.40;80.20;;;;;;5011261;28;20231;-88
2021/03/06 01:02:05;;;;;;;8.83;7.13;;;0.30;80.40;;;;;;5005520;28;20203;-87
2021/03/06 01:04:32;;;;;;;9.23;6.63;;;0.30;80.40;;;;;;5003348;28;20208;-87
2021/03/06 01:06:59;;;;;;;8.00;6.80;;;0.30;80.50;;;;;;5007085;28;20249;-87
2021/03/06 01:09:26;;;;;;;7.63;6.30;;;0.20;80.60;;;;;;5009413;28;20199;-88
2021/03/06 01:11:52;;;;;;;8.73;7.03;;;0.10;81.10;;;;;;5003875;28;20237;-87
2021/03/06 01:14:19;;;;;;;7.37;6.53;;;0.10;81.00;;;;;;4996592;28;20354;-88
2021/03/06 01:16:45;;;;;;;8.60;6.67;;;0.20;80.10;;;;;;5012564;28;20237;-88
2021/03/06 01:19:12;;;;;;;9.40;6.60;;;0.10;80.00;;;;;;5010048;28;20204;-88
2021/03/06 01:21:38;;;;;;;9.37;6.80;;;0.10;80.10;;;;;;5012215;28;20226;-88
2021/03/06 01:24:05;;;;;;;9.23;7.00;;;0.00;80.80;;;;;;5012960;28;20224;-89
2021/03/06 01:26:33;;;;;;;8.20;6.80;;;0.00;81.10;;;;;;5011863;28;20234;-88
2021/03/06 01:28:59;;;;;;;8.30;6.90;;;0.00;81.50;;;;;;5011720;28;20207;-87
2021/03/06 01:31:26;;;;;;;6.70;6.00;;;-0.10;81.70;;;;;;5009300;28;20234;-88
2021/03/06 01:33:53;;;;;;;10.37;6.50;;;0.00;82.10;;;;;;5008411;28;20199;-88
2021/03/06 01:36:21;;;;;;;8.47;6.67;;;0.00;81.00;;;;;;5005008;28;20223;-88
2021/03/06 01:38:47;;;;;;;9.37;6.70;;;0.00;80.80;;;;;;5006566;28;20206;-87
2021/03/06 01:41:13;;;;;;;8.07;6.70;;;0.00;81.80;;;;;;5009209;28;20231;-87
2021/03/06 01:43:41;;;;;;;8.87;6.80;;;0.10;81.50;;;;;;5000666;28;20230;-88
2021/03/06 01:46:07;;;;;;;9.37;6.60;;;0.10;81.00;;;;;;5003180;28;20226;-88
2021/03/06 01:48:34;;;;;;;8.47;6.73;;;0.10;80.50;;;;;;5006876;28;20549;-87
2021/03/06 01:51:00;;;;;;;8.07;6.47;;;0.10;82.20;;;;;;5004603;28;20243;-87
2021/03/06 01:53:27;;;;;;;8.37;7.00;;;0.10;81.60;;;;;;5004073;28;20203;-88
2021/03/06 01:55:53;;;;;;;8.70;6.67;;;0.10;81.60;;;;;;5005815;28;20226;-87
2021/03/06 01:58:20;;;;;;;7.97;6.83;;;0.10;82.00;;;;;;5016532;28;20199;-88
2021/03/06 02:00:47;;;;;;;8.07;6.57;;;0.00;81.80;;;;;;5013522;28;20755;-87
2021/03/06 02:03:14;;;;;;;10.83;7.17;;;0.00;81.90;;;;;;5005390;28;20199;-88
2021/03/06 02:05:40;;;;;;;8.90;6.80;;;-0.10;82.80;;;;;;5010446;28;20230;-88
2021/03/06 02:08:06;;;;;;;8.90;7.23;;;-0.10;83.00;;;;;;5004465;28;20608;-86
2021/03/06 02:10:37;;;;;;;10.47;7.10;;;-0.20;83.80;;;;;;5005849;28;20226;-88
2021/03/06 02:13:20;;;;;;;8.83;6.47;;;-0.20;84.10;;;;;;5004308;28;20200;-87
2021/03/06 02:15:59;;;;;;;8.40;7.07;;;-0.30;85.60;;;;;;5008353;28;20228;-88
2021/03/06 02:18:33;;;;;;;8.43;7.30;;;-0.30;85.60;;;;;;4999570;28;20214;-88
2021/03/06 02:21:04;;;;;;;9.03;7.20;;;-0.40;85.60;;;;;;5010284;28;20582;-87
2021/03/06 02:24:06;;;;;;;9.97;7.47;;;-0.40;85.50;;;;;;5013392;28;20230;-88
2021/03/06 02:27:08;;;;;;;9.70;7.07;;;-0.40;85.60;;;;;;5009424;28;20231;-86
2021/03/06 02:29:51;;;;;;;8.77;6.80;;;-0.40;85.50;;;;;;4994230;28;20686;-88
2021/03/06 02:32:21;;;;;;;8.47;6.60;;;-0.40;85.50;;;;;;5022596;28;20235;-88
2021/03/06 02:34:55;;;;;;;8.67;6.47;;;-0.40;85.50;;;;;;5027211;28;20238;-87
2021/03/06 02:37:24;;;;;;;8.07;6.80;;;-0.50;86.10;;;;;;5004104;28;20648;-87
2021/03/06 02:39:57;;;;;;;7.80;6.60;;;-0.50;87.40;;;;;;5010067;28;20206;-88
2021/03/06 02:42:26;;;;;;;9.83;7.10;;;-0.50;87.00;;;;;;4999063;28;20205;-88
2021/03/06 02:44:55;;;;;;;7.57;6.63;;;-0.40;87.40;;;;;;5001188;28;20526;-86
2021/03/06 02:47:22;;;;;;;9.23;6.53;;;-0.50;87.40;;;;;;5010154;28;20201;-87
2021/03/06 02:49:53;;;;;;;7.93;6.30;;;-0.50;88.80;;;;;;5014745;28;20238;-87
2021/03/06 02:52:19;;;;;;;8.47;6.27;;;-0.50;88.20;;;;;;5008226;28;20748;-88
2021/03/06 02:54:47;;;;;;;8.17;6.77;;;-0.50;87.80;;;;;;5013691;28;20207;-88
2021/03/06 02:57:21;;;;;;;9.43;6.77;;;-0.50;88.30;;;;;;5014167;28;20618;-88
2021/03/06 03:00:04;;;;;;;9.93;6.67;;;-0.60;88.50;;;;;;5012754;28;20218;-89
2021/03/06 03:02:42;;;;;;;8.40;6.40;;;-0.60;89.20;;;;;;5021049;28;20203;-88
2021/03/06 03:05:20;;;;;;;9.00;6.20;;;-0.60;88.90;;;;;;5008295;28;20235;-87
2021/03/06 03:07:52;;;;;;;7.70;6.27;;;-0.60;89.50;;;;;;5017298;28;20297;-87
2021/03/06 03:10:20;;;;;;;8.77;6.30;;;-0.70;89.30;;;;;;5011026;28;20655;-87
2021/03/06 03:12:53;;;;;;;8.63;6.70;;;-0.70;89.60;;;;;;5009105;28;20232;-87
2021/03/06 03:15:25;;;;;;;7.90;6.33;;;-0.80;90.10;;;;;;5003877;28;20227;-89
2021/03/06 03:17:54;;;;;;;7.67;5.97;;;-0.80;90.10;;;;;;5018845;28;20205;-89
2021/03/06 03:20:32;;;;;;;8.33;6.30;;;-0.80;90.20;;;;;;4998738;28;20294;-90
2021/03/06 03:23:04;;;;;;;7.73;6.07;;;-0.90;90.20;;;;;;5008141;28;20220;-90
2021/03/06 03:25:32;;;;;;;7.77;6.03;;;-0.90;90.30;;;;;;5008136;28;20229;-90
2021/03/06 03:28:00;;;;;;;9.53;6.27;;;-0.90;90.30;;;;;;5002356;28;20206;-88
2021/03/06 03:30:27;;;;;;;8.37;6.67;;;-0.90;90.40;;;;;;5011396;28;20238;-90
2021/03/06 03:32:55;;;;;;;10.00;7.20;;;-1.00;90.60;;;;;;5003674;28;20203;-89
2021/03/06 03:35:25;;;;;;;8.87;6.73;;;-1.00;90.50;;;;;;5005578;28;20617;-89
2021/03/06 03:37:54;;;;;;;9.83;6.83;;;-1.00;90.70;;;;;;5006340;28;20370;-89
2021/03/06 03:40:22;;;;;;;7.97;6.30;;;-1.00;90.90;;;;;;5007563;28;20237;-89
2021/03/06 03:42:49;;;;;;;8.70;6.43;;;-1.10;90.80;;;;;;5005689;28;20212;-88
2021/03/06 03:45:17;;;;;;;9.00;6.33;;;-1.00;91.00;;;;;;5007673;28;20234;-89
2021/03/06 03:47:45;;;;;;;8.07;6.30;;;-1.00;90.80;;;;;;5007785;28;20198;-88
2021/03/06 03:50:14;;;;;;;8.60;6.50;;;-1.00;90.70;;;;;;5007348;28;20253;-89
2021/03/06 03:52:43;;;;;;;9.17;6.27;;;-1.00;90.60;;;;;;5000548;28;20260;-89
2021/03/06 03:55:11;;;;;;;9.70;6.50;;;-1.10;90.60;;;;;;5006313;28;20240;-89
2021/03/06 03:57:38;;;;;;;8.40;6.23;;;-1.10;91.00;;;;;;5008904;28;20206;-90
2021/03/06 04:00:07;;;;;;;10.23;7.07;;;-1.10;90.90;;;;;;5005296;28;20265;-90
2021/03/06 04:02:33;;;;;;;12.10;6.97;;;-1.20;91.10;;;;;;5009686;28;20259;-89
2021/03/06 04:05:01;;;;;;;9.37;6.83;;;-1.20;91.10;;;;;;5009871;28;20229;-88
2021/03/06 04:07:27;;;;;;;9.83;7.10;;;-1.20;91.10;;;;;;5011530;28;20201;-88
2021/03/06 04:09:53;;;;;;;8.60;6.90;;;-1.20;91.10;;;;;;5009298;28;20209;-90
2021/03/06 04:12:20;;;;;;;7.90;6.50;;;-1.20;91.10;;;;;;5010592;28;20216;-88
2021/03/06 04:14:46;;;;;;;9.23;6.83;;;-1.20;91.20;;;;;;5010819;28;20202;-89
2021/03/06 04:17:13;;;;;;;9.30;6.70;;;-1.30;91.30;;;;;;5004985;28;20831;-88
2021/03/06 04:19:39;;;;;;;8.10;6.37;;;-1.30;91.40;;;;;;5009073;28;20209;-89
2021/03/06 04:22:06;;;;;;;9.03;7.13;;;-1.30;91.60;;;;;;5006397;28;20587;-87
2021/03/06 04:24:33;;;;;;;9.53;7.30;;;-1.30;91.50;;;;;;5008204;28;20211;-89
2021/03/06 04:26:59;;;;;;;10.20;7.17;;;-1.40;91.50;;;;;;5008373;28;20223;-89
2021/03/06 04:29:25;;;;;;;10.67;7.23;;;-1.40;91.80;;;;;;5012554;28;20215;-89
2021/03/06 04:31:52;;;;;;;9.70;6.93;;;-1.40;92.00;;;;;;5004861;28;20228;-89
2021/03/06 04:34:18;;;;;;;10.00;7.33;;;-1.40;92.00;;;;;;5011464;28;20192;-88
2021/03/06 04:36:44;;;;;;;10.03;7.17;;;-1.40;91.90;;;;;;5011477;28;20291;-89
2021/03/06 04:39:12;;;;;;;10.40;7.00;;;-1.40;91.90;;;;;;5001380;28;20198;-89
2021/03/06 04:41:38;;;;;;;9.87;7.13;;;-1.40;92.10;;;;;;5002441;28;20251;-89
2021/03/06 04:44:06;;;;;;;9.00;7.03;;;-1.50;92.30;;;;;;5007133;28;20205;-89
2021/03/06 04:46:33;;;;;;;8.67;6.87;;;-1.50;92.40;;;;;;5004582;28;20230;-88
2021/03/06 04:49:01;;;;;;;9.73;7.30;;;-1.50;92.40;;;;;;5012287;28;20198;-88
2021/03/06 04:51:27;;;;;;;9.33;6.90;;;-1.60;92.70;;;;;;5013090;28;20268;-89
2021/03/06 04:53:55;;;;;;;10.20;7.57;;;-1.60;92.70;;;;;;5009808;28;20280;-89
2021/03/06 04:56:22;;;;;;;10.00;6.97;;;-1.60;92.60;;;;;;5024633;28;20253;-90
2021/03/06 04:58:49;;;;;;;11.87;7.83;;;-1.50;92.50;;;;;;5016739;28;20211;-89
2021/03/06 05:01:15;;;;;;;10.40;7.60;;;-1.50;92.60;;;;;;5006319;28;20429;-89
2021/03/06 05:03:42;;;;;;;9.33;7.20;;;-1.50;92.70;;;;;;5004488;28;20256;-89
2021/03/06 05:06:08;;;;;;;9.53;7.47;;;-1.50;92.60;;;;;;5008891;28;20282;-89
2021/03/06 05:08:34;;;;;;;8.87;7.17;;;-1.50;92.50;;;;;;5009108;28;20195;-89
2021/03/06 05:11:01;;;;;;;9.43;7.07;;;-1.60;92.50;;;;;;5007030;28;20228;-88
2021/03/06 05:13:28;;;;;;;11.27;8.07;;;-1.60;92.30;;;;;;5010790;28;20201;-88
2021/03/06 05:15:54;;;;;;;11.73;7.50;;;-1.70;92.80;;;;;;5005765;28;20228;-89
2021/03/06 05:18:21;;;;;;;9.13;7.20;;;-1.70;92.70;;;;;;5004817;28;20202;-89
2021/03/06 05:20:47;;;;;;;9.37;7.37;;;-1.70;92.70;;;;;;5005374;28;20299;-88
2021/03/06 05:23:14;;;;;;;10.07;7.83;;;-1.70;92.80;;;;;;5005297;28;20233;-89
2021/03/06 05:25:40;;;;;;;10.57;7.77;;;-1.80;92.90;;;;;;5004670;28;20235;-89
2021/03/06 05:28:07;;;;;;;10.00;7.00;;;-1.80;93.00;;;;;;5009087;28;20202;-90
2021/03/06 05:30:34;;;;;;;11.33;7.27;;;-1.90;93.20;;;;;;5003968;28;20249;-89
2021/03/06 05:33:00;;;;;;;9.07;6.70;;;-1.80;93.10;;;;;;5010491;28;20228;-88
2021/03/06 05:35:27;;;;;;;10.37;7.50;;;-1.80;92.90;;;;;;5005645;28;20238;-90
2021/03/06 05:37:53;;;;;;;8.80;6.70;;;-1.80;92.90;;;;;;5012317;28;20194;-89
2021/03/06 05:40:20;;;;;;;9.73;7.27;;;-1.80;92.40;;;;;;5010546;28;20227;-89
2021/03/06 05:42:47;;;;;;;10.03;6.90;;;-1.80;92.40;;;;;;5005415;28;20457;-88
2021/03/06 05:45:13;;;;;;;9.97;7.20;;;-1.80;92.40;;;;;;5013538;28;20234;-90
2021/03/06 05:47:40;;;;;;;10.63;7.17;;;-1.80;92.30;;;;;;5010692;28;20232;-90
2021/03/06 05:50:08;;;;;;;10.57;7.40;;;-1.80;92.20;;;;;;5011433;28;20722;-89
2021/03/06 05:52:38;;;;;;;8.97;7.10;;;-1.80;92.40;;;;;;5013922;28;20223;-89
2021/03/06 05:55:05;;;;;;;9.67;6.90;;;-1.80;92.30;;;;;;5016107;28;20271;-89
2021/03/06 05:57:31;;;;;;;11.40;6.87;;;-1.90;92.30;;;;;;5009997;28;20243;-89
2021/03/06 05:59:58;;;;;;;9.17;6.80;;;-1.80;92.30;;;;;;5002929;28;20208;-90
2021/03/06 06:02:24;;;;;;;9.90;6.87;;;-1.80;92.20;;;;;;5005600;28;20196;-88
2021/03/06 06:04:52;;;;;;;12.13;6.83;;;-1.80;92.20;;;;;;5018654;28;20206;-89
2021/03/06 06:07:19;;;;;;;9.13;6.70;;;-1.80;91.70;;;;;;5015051;28;20219;-89
2021/03/06 06:09:46;;;;;;;9.23;7.27;;;-1.80;91.80;;;;;;5009035;28;20275;-88
2021/03/06 06:12:13;;;;;;;11.17;7.20;;;-1.80;91.80;;;;;;5006644;28;20618;-89
2021/03/06 06:14:40;;;;;;;9.53;6.80;;;-1.80;91.80;;;;;;5010960;28;20209;-88
2021/03/06 06:17:08;;;;;;;8.43;6.97;;;-1.70;91.80;;;;;;5013688;28;20233;-90
2021/03/06 06:19:37;;;;;;;10.47;7.37;;;-1.70;91.50;;;;;;5004368;28;20201;-89
2021/03/06 06:22:16;;;;;;;10.00;7.13;;;-1.80;91.50;;;;;;5008918;28;20237;-89
2021/03/06 06:24:43;;;;;;;9.00;7.03;;;-1.70;91.70;;;;;;5005079;28;20207;-88
2021/03/06 06:27:10;;;;;;;10.43;6.97;;;-1.70;91.50;;;;;;5001331;28;20203;-88
2021/03/06 06:29:38;;;;;;;8.57;6.63;;;-1.60;91.30;;;;;;5010875;28;20435;-88
2021/03/06 06:32:05;;;;;;;8.33;6.63;;;-1.60;91.40;;;;;;5013451;28;20236;-89
2021/03/06 06:34:32;;;;;;;9.83;6.83;;;-1.60;91.20;;;;;;5012166;28;20606;-89
2021/03/06 06:36:58;;;;;;;12.40;6.53;;;-1.60;91.30;;;;;;5007365;28;20254;-89
2021/03/06 06:39:29;;;;;;;10.07;7.13;;;-1.50;91.00;;;;;;5012824;28;20267;-89
2021/03/06 06:41:58;;;;;;;9.17;6.33;;;-1.50;90.90;;;;;;5015029;28;20229;-90
2021/03/06 06:44:26;;;;;;;9.53;6.87;;;-1.40;90.70;;;;;;5009440;28;20287;-89
2021/03/06 06:46:56;;;;;;;7.43;6.10;;;-1.40;90.40;;;;;;5004594;28;20227;-89
2021/03/06 06:49:23;;;;;;;8.50;6.40;;;-1.30;90.40;;;;;;5005508;28;20211;-89
2021/03/06 06:52:03;;;;;;;8.07;5.93;;;-1.20;90.50;;;;;;5010321;28;20231;-90
2021/03/06 06:54:32;;;;;;;8.80;6.03;;;-1.20;90.10;;;;;;5016023;28;20212;-88
2021/03/06 06:57:12;;;;;;;9.20;5.83;;;-1.20;90.00;;;;;;5007776;28;20221;-88
2021/03/06 06:59:40;;;;;;;8.63;5.67;;;-1.10;89.40;;;;;;5012898;28;20261;-88
2021/03/06 07:02:09;;;;;;;11.03;6.30;;;-1.10;87.80;;;;;;5009347;28;20245;-87
2021/03/06 07:04:52;;;;;;;9.27;5.77;;;-1.00;87.10;;;;;;5014158;28;20195;-88
2021/03/06 07:07:19;;;;;;;11.97;6.13;;;-1.00;86.60;;;;;;5006940;28;20224;-88
2021/03/06 07:10:07;;;;;;;8.73;5.67;;;-0.90;86.40;;;;;;5012959;28;20207;-88
2021/03/06 07:12:35;;;;;;;8.37;5.23;;;-0.70;85.40;;;;;;5015767;28;20229;-88
2021/03/06 07:15:02;;;;;;;6.43;5.17;;;-0.70;85.40;;;;;;5023585;28;20229;-89
2021/03/06 07:17:39;;;;;;;6.23;5.03;;;-0.40;83.30;;;;;;5017988;28;20200;-87
2021/03/06 07:20:09;;;;;;;6.13;4.80;;;-0.40;81.60;;;;;;5005818;28;20227;-88
2021/03/06 07:22:36;;;;;;;9.03;5.47;;;-0.40;81.30;;;;;;5002120;28;20229;-89
2021/03/06 07:25:05;;;;;;;7.33;4.90;;;-0.30;82.90;;;;;;5001494;28;20501;-88
2021/03/06 07:27:31;;;;;;;5.23;4.13;;;-0.20;80.40;;;;;;5001054;28;20205;-88
2021/03/06 07:29:57;;;;;;;8.50;5.30;;;-0.10;78.70;;;;;;5004317;28;20208;-88
2021/03/06 07:32:30;;;;;;;7.17;5.10;;;0.00;78.50;;;;;;5006806;28;20223;-87
2021/03/06 07:35:02;;;;;;;6.50;4.57;;;0.00;78.90;;;;;;5001119;28;20257;-89
2021/03/06 07:37:30;;;;;;;8.03;4.93;;;-0.10;77.90;;;;;;5007217;28;20206;-89
2021/03/06 07:39:59;;;;;;;7.33;4.90;;;-0.20;77.70;;;;;;5012711;28;20209;-87
2021/03/06 07:42:35;;;;;;;6.90;4.57;;;0.00;78.40;;;;;;5009907;28;20217;-88
2021/03/06 07:45:02;;;;;;;5.87;4.50;;;0.00;76.60;;;;;;5009051;28;20284;-89
2021/03/06 07:47:32;;;;;;;7.30;4.73;;;0.20;78.20;;;;;;5017523;28;20209;-85
2021/03/06 07:50:01;;;;;;;6.63;4.60;;;0.40;75.20;;;;;;5005202;28;20224;-85
2021/03/06 07:52:30;;;;;;;7.13;4.50;;;0.60;74.70;;;;;;5011166;28;20227;-89
2021/03/06 07:54:58;;;;;;;7.27;4.50;;;0.80;70.10;;;;;;4997741;28;20202;-88
2021/03/06 07:57:24;;;;;;;5.70;4.27;;;1.00;69.50;;;;;;4998047;28;20543;-87
2021/03/06 08:00:00;;;;;;;6.13;4.33;;;1.40;69.00;;;;;;4999886;28;20199;-85
2021/03/06 08:02:34;;;;;;;6.47;4.20;;;1.70;66.20;;;;;;5000503;28;20274;-84
2021/03/06 08:05:02;;;;;;;6.43;4.40;;;1.90;65.20;;;;;;5003780;28;20202;-88
2021/03/06 08:07:41;;;;;;;7.73;4.20;;;2.00;62.10;;;;;;4999106;28;20200;-88
2021/03/06 08:10:09;;;;;;;5.10;3.90;;;2.10;62.30;;;;;;4994817;28;20689;-87
2021/03/06 08:12:36;;;;;;;6.70;4.10;;;2.50;60.30;;;;;;4996242;28;20606;-88
2021/03/06 08:15:30;;;;;;;5.93;4.13;;;2.80;59.50;;;;;;4994661;28;20231;-86
2021/03/06 08:17:57;;;;;;;5.43;4.53;;;2.70;57.00;;;;;;5003853;28;20209;-84
2021/03/06 08:20:28;;;;;;;5.37;3.97;;;2.80;58.10;;;;;;5000620;28;20496;-85
2021/03/06 08:23:23;;;;;;;5.73;3.80;;;2.80;58.10;;;;;;5005061;28;20233;-84
2021/03/06 08:26:31;;;;;;;5.37;4.03;;;2.70;57.60;;;;;;4986744;28;20423;-87
2021/03/06 08:29:31;;;;;;;4.43;3.90;;;2.50;57.20;;;;;;4998095;28;20213;-83
2021/03/06 08:32:01;;;;;;;5.90;4.30;;;2.40;57.70;;;;;;4998964;28;20688;-83
2021/03/06 08:34:29;;;;;;;8.33;4.23;;;2.40;57.80;;;;;;5000248;28;20213;-85
2021/03/06 08:37:44;;;;;;;4.37;3.80;;;2.50;62.30;;;;;;5000996;28;20234;-87
2021/03/06 08:40:16;;;;;;;4.37;3.80;;;2.60;57.00;;;;;;5006707;28;20221;-89
2021/03/06 08:42:46;;;;;;;5.93;3.90;;;2.50;56.70;;;;;;5001940;28;20230;-88
2021/03/06 08:45:15;;;;;;;7.13;4.20;;;2.70;55.60;;;;;;5008406;28;20653;-88
2021/03/06 08:47:44;;;;;;;5.27;4.00;;;2.60;55.00;;;;;;5006237;28;20206;-89
2021/03/06 08:50:13;;;;;;;5.37;3.70;;;2.80;53.30;;;;;;5014344;28;20230;-87
2021/03/06 08:52:41;;;;;;;4.23;3.60;;;3.10;51.50;;;;;;4998416;28;20226;-89
2021/03/06 08:55:09;;;;;;;6.30;3.93;;;3.40;49.20;;;;;;4996609;28;20252;-86
2021/03/06 08:57:38;;;;;;;5.33;3.97;;;3.30;51.50;;;;;;4995611;28;20204;-85
2021/03/06 09:00:16;;;;;;;5.10;3.73;;;3.70;50.10;;;;;;4998818;28;20227;-85
2021/03/06 09:02:44;;;;;;;4.80;3.80;;;4.10;47.90;;;;;;4997133;28;20191;-85
2021/03/06 09:05:12;;;;;;;4.03;3.60;;;4.80;44.10;;;;;;4998211;28;20238;-87
2021/03/06 09:07:40;;;;;;;6.37;3.43;;;5.40;44.60;;;;;;5004800;28;20215;-89
2021/03/06 09:10:38;;;;;;;5.63;3.73;;;5.90;43.60;;;;;;5008283;28;20223;-88
2021/03/06 09:13:07;;;;;;;8.77;4.00;;;6.40;41.40;;;;;;4999830;28;20724;-90
2021/03/06 09:15:45;;;;;;;4.90;4.07;;;7.10;38.20;;;;;;4999957;28;20230;-90
2021/03/06 09:18:15;;;;;;;4.35;3.92;;;7.60;36.20;;;;;;5003972;28;20211;-89
2021/03/06 09:20:50;;;;;;;5.93;4.22;;;8.00;37.10;;;;;;5003677;28;20610;-91
2021/03/06 09:23:27;;;;;;;4.85;4.25;;;7.30;36.80;;;;;;5008352;28;20269;-92
2021/03/06 09:25:54;;;;;;;5.53;4.10;;;7.00;37.30;;;;;;5016417;28;20249;-90
2021/03/06 09:28:27;;;;;;;6.00;3.80;;;7.30;37.60;;;;;;5014021;28;20235;-91
2021/03/06 09:31:14;;;;;;;4.38;3.97;;;9.10;36.40;;;;;;5023803;28;20290;-90
2021/03/06 09:36:28;;;;;;;4.85;4.20;;;10.00;29.20;;;;;;5010828;28;20310;-92
2021/03/06 09:38:57;;;;;;;4.50;3.78;;;10.50;28.70;;;;;;5011858;28;20210;-93
2021/03/06 09:41:27;;;;;;;4.80;4.30;;;11.30;27.80;;;;;;5006865;28;20227;-91
2021/03/06 09:43:55;;;;;;;4.57;4.18;;;12.50;25.80;;;;;;5015023;28;20710;-90
2021/03/06 09:46:27;;;;;;;4.78;4.38;;;13.80;23.80;;;;;;5004426;28;20578;-91
2021/03/06 09:48:56;;;;;;;5.07;4.57;;;13.20;26.10;;;;;;5003424;28;20231;-92
2021/03/06 09:51:24;;;;;;;5.00;4.53;;;12.50;25.50;;;;;;5004627;28;20720;-89
2021/03/06 09:53:59;;;;;;;5.60;4.63;;;12.50;25.70;;;;;;5010950;28;20234;-87
2021/03/06 09:56:26;;;;;;;4.60;4.20;;;12.50;24.20;;;;;;5009656;28;20556;-87
2021/03/06 09:59:00;;;;;;;4.82;4.30;;;13.90;25.60;;;;;;5005926;28;20341;-86
2021/03/06 10:01:28;;;;;;;4.57;4.18;;;14.60;22.20;;;;;;5013862;28;20630;-86
2021/03/06 10:03:55;;;;;;;5.10;4.60;;;14.60;21.60;;;;;;5002719;28;20546;-85
2021/03/06 10:06:24;;;;;;;5.72;5.00;;;14.00;22.20;;;;;;4998256;28;20238;-85
2021/03/06 10:08:56;;;;;;;5.93;4.57;;;14.50;23.80;;;;;;5005582;28;20199;-86
2021/03/06 10:11:29;;;;;;;6.82;4.53;;;14.30;22.40;;;;;;5008034;28;20231;-84
2021/03/06 10:13:56;;;;;;;4.90;4.50;;;14.10;23.40;;;;;;5010702;28;20203;-84
2021/03/06 10:16:23;;;;;;;5.05;4.55;;;11.60;25.00;;;;;;5005511;28;20223;-87
2021/03/06 10:18:51;;;;;;;4.65;4.22;;;11.50;25.00;;;;;;5009864;28;20208;-86
2021/03/06 10:21:22;;;;;;;5.03;4.35;;;12.60;25.80;;;;;;5011666;28;20222;-86
2021/03/06 10:23:50;;;;;;;6.55;5.95;;;13.00;23.90;;;;;;5011348;28;20511;-86
2021/03/06 10:26:26;;;;;;;6.13;4.45;;;12.90;23.20;;;;;;5015631;28;20235;-85
2021/03/06 10:28:55;;;;;;;4.80;4.30;;;13.30;24.00;;;;;;5012533;28;20262;-88
2021/03/06 10:31:39;;;;;;;5.20;4.60;;;12.80;26.00;;;;;;5010793;28;20234;-89
2021/03/06 10:34:20;;;;;;;4.93;4.45;;;12.40;25.70;;;;;;5013787;28;20557;-88
2021/03/06 10:37:06;;;;;;;5.65;4.43;;;12.10;25.40;;;;;;5006775;28;20267;-87
2021/03/06 10:39:34;;;;;;;5.38;4.43;;;12.20;25.50;;;;;;5006489;28;20216;-84
2021/03/06 10:42:01;;;;;;;4.65;4.25;;;12.60;25.80;;;;;;5006762;28;20230;-89
2021/03/06 10:44:40;;;;;;;4.85;4.15;;;12.80;26.00;;;;;;5008025;28;20199;-90
2021/03/06 10:47:06;;;;;;;5.57;4.45;;;12.70;26.00;;;;;;5003976;28;20694;-88
2021/03/06 10:49:37;;;;;;;4.82;4.20;;;12.00;25.30;;;;;;5006177;28;20568;-87
2021/03/06 10:52:05;;;;;;;5.35;4.85;;;11.40;26.10;;;;;;5007658;28;20277;-90
2021/03/06 10:54:49;;;;;;;5.22;4.72;;;12.00;25.40;;;;;;5008981;28;20207;-88
2021/03/06 10:57:15;;;;;;;5.97;4.90;;;12.10;25.40;;;;;;5009814;28;20223;-88
2021/03/06 10:59:41;;;;;;;4.95;4.40;;;11.90;25.20;;;;;;5006186;28;20204;-88
2021/03/06 11:02:08;;;;;;;5.00;4.50;;;11.50;26.20;;;;;;5003514;28;20236;-87
2021/03/06 11:04:36;;;;;;;4.78;4.38;;;11.90;25.30;;;;;;5000257;28;20203;-87
2021/03/06 11:07:05;;;;;;;5.07;4.45;;;11.90;26.10;;;;;;5005007;28;20223;-88
2021/03/06 11:09:34;;;;;;;4.53;4.13;;;11.70;25.10;;;;;;5007745;28;20207;-88
2021/03/06 11:15:09;;;;;;;5.57;5.00;;;11.50;25.80;;;;;;5066494;27;20556;-88
2021/03/06 11:17:39;;;;;;;6.13;4.85;;;10.60;27.40;;;;;;5013876;28;20203;-87
2021/03/06 11:20:07;;;;;;;5.18;4.68;;;10.60;27.50;;;;;;5031838;27;20230;-88
2021/03/06 11:22:33;;;;;;;6.43;4.55;;;10.10;28.80;;;;;;5027362;28;20282;-88
2021/03/06 11:25:00;;;;;;;5.30;4.60;;;9.20;32.50;;;;;;5025451;27;20298;-88
2021/03/06 11:27:27;;;;;;;5.28;4.70;;;8.40;33.90;;;;;;5019068;28;20207;-89
2021/03/06 11:29:53;;;;;;;6.18;4.80;;;7.90;35.50;;;;;;5009271;28;20205;-89
2021/03/06 11:32:22;;;;;;;6.95;4.88;;;7.50;38.20;;;;;;5012323;28;20200;-86
2021/03/06 11:34:48;;;;;;;4.63;4.23;;;7.30;37.10;;;;;;5016054;27;20301;-84
2021/03/06 11:37:15;;;;;;;5.87;4.67;;;7.20;37.40;;;;;;5019749;28;20203;-84
2021/03/06 11:39:41;;;;;;;5.80;4.50;;;7.10;38.00;;;;;;5013573;28;20708;-83
2021/03/06 11:42:08;;;;;;;6.20;5.07;;;6.80;39.40;;;;;;5019777;27;20223;-82
2021/03/06 11:44:35;;;;;;;5.97;5.00;;;6.30;41.30;;;;;;5010844;28;20275;-84
2021/03/06 11:47:01;;;;;;;4.93;4.43;;;6.40;40.40;;;;;;5008946;28;20234;-83
2021/03/06 11:49:29;;;;;;;9.27;5.13;;;6.50;40.50;;;;;;5019527;28;20249;-83
2021/03/06 11:51:55;;;;;;;5.53;4.60;;;6.70;41.50;;;;;;5023000;28;20215;-84
2021/03/06 11:54:23;;;;;;;5.27;4.77;;;6.60;41.10;;;;;;5021653;28;20218;-83
2021/03/06 11:56:49;;;;;;;5.57;4.37;;;6.70;41.70;;;;;;5011629;28;20233;-83
2021/03/06 11:59:16;;;;;;;5.77;4.37;;;6.70;41.00;;;;;;5022116;28;20195;-85
2021/03/06 12:01:42;;;;;;;6.60;4.70;;;6.50;40.50;;;;;;5014834;27;20723;-85
2021/03/06 12:04:09;;;;;;;6.20;4.67;;;6.40;40.60;;;;;;5014241;28;20207;-88
2021/03/06 12:06:36;;;;;;;5.57;4.23;;;6.40;40.90;;;;;;5014618;28;20352;-87
2021/03/06 12:09:03;;;;;;;5.63;4.60;;;6.30;40.50;;;;;;5020551;28;20195;-86
2021/03/06 12:11:29;;;;;;;6.43;4.80;;;6.30;40.90;;;;;;5019202;28;20745;-87
2021/03/06 12:13:56;;;;;;;5.17;4.67;;;6.10;43.10;;;;;;5014834;28;20272;-85
2021/03/06 12:16:23;;;;;;;5.17;4.67;;;6.20;42.50;;;;;;5022060;28;20218;-84
2021/03/06 12:18:49;;;;;;;5.50;4.87;;;6.30;42.20;;;;;;5017372;28;20612;-84
2021/03/06 12:21:16;;;;;;;5.83;4.77;;;6.30;42.30;;;;;;5018003;27;20309;-87
2021/03/06 12:23:43;;;;;;;5.77;4.63;;;6.30;41.80;;;;;;5019779;28;20226;-87
2021/03/06 12:26:10;;;;;;;5.27;4.70;;;6.30;42.40;;;;;;5001611;28;20231;-87
2021/03/06 12:28:36;;;;;;;7.70;4.83;;;6.20;41.90;;;;;;5000824;28;20215;-86
2021/03/06 12:31:03;;;;;;;5.30;4.77;;;6.10;42.60;;;;;;5000832;28;20241;-84
2021/03/06 12:33:29;;;;;;;5.20;4.70;;;6.10;43.40;;;;;;5002665;28;20227;-86
2021/03/06 12:35:56;;;;;;;6.00;4.60;;;6.00;43.80;;;;;;5006863;28;20239;-89
2021/03/06 12:38:22;;;;;;;6.03;5.10;;;5.80;44.90;;;;;;5003628;28;20200;-85
2021/03/06 12:40:50;;;;;;;5.70;4.90;;;5.90;43.90;;;;;;5002817;28;20273;-86
2021/03/06 12:43:16;;;;;;;6.40;4.97;;;5.90;45.10;;;;;;5005279;28;20204;-85
2021/03/06 12:45:43;;;;;;;6.73;4.80;;;6.00;45.10;;;;;;5002249;28;20228;-85
2021/03/06 12:48:10;;;;;;;8.43;4.73;;;6.00;45.10;;;;;;5007539;28;20196;-86
2021/03/06 12:50:36;;;;;;;7.40;4.80;;;6.10;45.20;;;;;;5005594;28;20223;-85
2021/03/06 12:53:03;;;;;;;5.23;4.43;;;6.10;43.50;;;;;;5001627;28;20228;-86
2021/03/06 12:55:29;;;;;;;5.33;4.37;;;6.20;43.00;;;;;;4996574;28;20535;-85
2021/03/06 12:57:56;;;;;;;7.27;4.57;;;6.10;42.70;;;;;;4997250;28;20693;-85
2021/03/06 13:00:23;;;;;;;5.47;4.80;;;6.00;44.20;;;;;;4992641;28;20239;-88
2021/03/06 13:02:50;;;;;;;8.03;4.43;;;6.10;45.10;;;;;;4994706;28;20213;-85
2021/03/06 13:05:18;;;;;;;5.43;4.63;;;6.20;45.10;;;;;;5001715;28;20269;-89
2021/03/06 13:07:44;;;;;;;5.57;4.63;;;6.20;43.50;;;;;;4998224;28;20654;-83